sensor_id;sensor_type;location;lat;lon;timestamp;pressure;altitude;pressure_sealevel;temperature;humidity
62697;BME280;48761;42.680;23.312;2022-08-18T00:00:31;94708.38;;;22.00;59.84
62697;BME280;48761;42.680;23.312;2022-08-18T00:03:00;94717.66;;;22.06;59.54
62697;BME280;48761;42.680;23.312;2022-08-18T00:05:28;94709.44;;;21.99;59.52
62697;BME280;48761;42.680;23.312;2022-08-18T00:07:54;94715.84;;;21.98;59.88
62697;BME280;48761;42.680;23.312;2022-08-18T00:10:20;94711.56;;;21.80;60.28
62697;BME280;48761;42.680;23.312;2022-08-18T00:12:46;94718.63;;;21.66;60.36
62697;BME280;48761;42.680;23.312;2022-08-18T00:15:13;94716.16;;;21.56;59.59
62697;BME280;48761;42.680;23.312;2022-08-18T00:17:40;94716.16;;;21.56;59.43
62697;BME280;48761;42.680;23.312;2022-08-18T00:20:11;94724.00;;;21.43;59.66
62697;BME280;48761;42.680;23.312;2022-08-18T00:22:38;94718.88;;;21.24;60.34
62697;BME280;48761;42.680;23.312;2022-08-18T00:25:04;94727.22;;;21.14;61.18
62697;BME280;48761;42.680;23.312;2022-08-18T00:27:30;94720.16;;;21.13;60.57
62697;BME280;48761;42.680;23.312;2022-08-18T00:29:59;94718.75;;;21.17;61.48
62697;BME280;48761;42.680;23.312;2022-08-18T00:32:31;94714.63;;;21.30;61.55
62697;BME280;48761;42.680;23.312;2022-08-18T00:37:41;94723.09;;;21.27;60.92
62697;BME280;48761;42.680;23.312;2022-08-18T00:40:10;94716.91;;;21.18;60.91
62697;BME280;48761;42.680;23.312;2022-08-18T00:42:43;94723.81;;;21.21;61.03
62697;BME280;48761;42.680;23.312;2022-08-18T00:45:16;94730.56;;;21.16;60.44
62697;BME280;48761;42.680;23.312;2022-08-18T00:47:42;94720.94;;;21.22;60.61
62697;BME280;48761;42.680;23.312;2022-08-18T00:50:31;94724.91;;;21.03;60.84
62697;BME280;48761;42.680;23.312;2022-08-18T00:53:02;94727.03;;;21.16;61.14
62697;BME280;48761;42.680;23.312;2022-08-18T00:55:30;94733.34;;;21.08;61.34
62697;BME280;48761;42.680;23.312;2022-08-18T00:58:03;94737.03;;;21.15;60.76
62697;BME280;48761;42.680;23.312;2022-08-18T01:00:31;94738.53;;;21.18;61.22
62697;BME280;48761;42.680;23.312;2022-08-18T01:03:00;94739.56;;;21.09;61.24
62697;BME280;48761;42.680;23.312;2022-08-18T01:05:38;94737.41;;;20.96;62.04
62697;BME280;48761;42.680;23.312;2022-08-18T01:08:08;94738.97;;;20.81;62.16
62697;BME280;48761;42.680;23.312;2022-08-18T01:10:36;94734.78;;;20.79;62.42
62697;BME280;48761;42.680;23.312;2022-08-18T01:13:02;94732.38;;;20.84;62.82
62697;BME280;48761;42.680;23.312;2022-08-18T01:15:28;94726.66;;;20.87;63.21
62697;BME280;48761;42.680;23.312;2022-08-18T01:17:55;94733.25;;;20.85;63.22
62697;BME280;48761;42.680;23.312;2022-08-18T01:20:28;94730.00;;;20.89;62.85
62697;BME280;48761;42.680;23.312;2022-08-18T01:23:13;94739.47;;;20.85;62.68
62697;BME280;48761;42.680;23.312;2022-08-18T01:25:40;94738.13;;;20.81;63.04
62697;BME280;48761;42.680;23.312;2022-08-18T01:28:06;94731.09;;;20.63;63.35
62697;BME280;48761;42.680;23.312;2022-08-18T01:30:45;94735.88;;;20.53;63.93
62697;BME280;48761;42.680;23.312;2022-08-18T01:33:11;94730.13;;;20.56;63.73
62697;BME280;48761;42.680;23.312;2022-08-18T01:35:39;94729.09;;;20.65;63.49
62697;BME280;48761;42.680;23.312;2022-08-18T01:38:06;94729.91;;;20.66;63.71
62697;BME280;48761;42.680;23.312;2022-08-18T01:40:32;94731.28;;;20.70;63.70
62697;BME280;48761;42.680;23.312;2022-08-18T01:42:58;94739.72;;;20.58;64.03
62697;BME280;48761;42.680;23.312;2022-08-18T01:45:23;94731.81;;;20.48;63.50
62697;BME280;48761;42.680;23.312;2022-08-18T01:47:49;94727.47;;;20.31;63.99
62697;BME280;48761;42.680;23.312;2022-08-18T01:50:16;94719.91;;;20.34;64.30
62697;BME280;48761;42.680;23.312;2022-08-18T01:52:42;94723.78;;;20.32;64.24
62697;BME280;48761;42.680;23.312;2022-08-18T01:55:09;94729.66;;;20.44;64.34
62697;BME280;48761;42.680;23.312;2022-08-18T01:57:37;94726.09;;;20.43;64.46
62697;BME280;48761;42.680;23.312;2022-08-18T02:00:04;94723.38;;;20.52;64.53
62697;BME280;48761;42.680;23.312;2022-08-18T02:02:31;94718.00;;;20.52;64.81
62697;BME280;48761;42.680;23.312;2022-08-18T02:05:03;94717.66;;;20.55;64.79
62697;BME280;48761;42.680;23.312;2022-08-18T02:07:32;94728.09;;;20.58;65.04
62697;BME280;48761;42.680;23.312;2022-08-18T02:09:59;94727.91;;;20.68;65.04
62697;BME280;48761;42.680;23.312;2022-08-18T02:12:25;94731.31;;;20.53;65.53
62697;BME280;48761;42.680;23.312;2022-08-18T02:14:51;94722.41;;;20.44;65.95
62697;BME280;48761;42.680;23.312;2022-08-18T02:17:17;94729.13;;;20.48;65.93
62697;BME280;48761;42.680;23.312;2022-08-18T02:19:46;94731.16;;;20.55;65.95
62697;BME280;48761;42.680;23.312;2022-08-18T02:22:15;94725.44;;;20.41;66.27
62697;BME280;48761;42.680;23.312;2022-08-18T02:24:41;94732.53;;;20.42;66.03
62697;BME280;48761;42.680;23.312;2022-08-18T02:27:08;94735.22;;;20.42;66.23
62697;BME280;48761;42.680;23.312;2022-08-18T02:29:35;94731.50;;;20.43;66.21
62697;BME280;48761;42.680;23.312;2022-08-18T02:32:01;94722.75;;;20.41;66.35
62697;BME280;48761;42.680;23.312;2022-08-18T02:34:27;94722.41;;;20.44;66.44
62697;BME280;48761;42.680;23.312;2022-08-18T02:36:53;94729.13;;;20.48;66.40
62697;BME280;48761;42.680;23.312;2022-08-18T02:39:19;94724.75;;;20.47;66.44
62697;BME280;48761;42.680;23.312;2022-08-18T02:41:45;94720.22;;;20.40;66.84
62697;BME280;48761;42.680;23.312;2022-08-18T02:44:11;94728.13;;;20.41;67.01
62697;BME280;48761;42.680;23.312;2022-08-18T02:46:37;94720.03;;;20.49;66.63
62697;BME280;48761;42.680;23.312;2022-08-18T02:49:04;94726.09;;;20.43;66.92
62697;BME280;48761;42.680;23.312;2022-08-18T02:51:30;94732.53;;;20.42;66.80
62697;BME280;48761;42.680;23.312;2022-08-18T02:53:56;94724.44;;;20.42;66.82
62697;BME280;48761;42.680;23.312;2022-08-18T02:56:24;94731.16;;;20.46;66.56
62697;BME280;48761;42.680;23.312;2022-08-18T02:58:56;94735.56;;;20.39;66.73
62697;BME280;48761;42.680;23.312;2022-08-18T03:01:23;94732.88;;;20.31;66.96
62697;BME280;48761;42.680;23.312;2022-08-18T03:03:49;94733.56;;;20.24;67.21
62697;BME280;48761;42.680;23.312;2022-08-18T03:06:16;94727.84;;;20.19;67.18
62697;BME280;48761;42.680;23.312;2022-08-18T03:08:43;94726.00;;;20.20;67.10
62697;BME280;48761;42.680;23.312;2022-08-18T03:11:09;94725.81;;;20.21;66.99
62697;BME280;48761;42.680;23.312;2022-08-18T03:13:34;94731.88;;;20.23;67.16
62697;BME280;48761;42.680;23.312;2022-08-18T03:16:00;94738.59;;;20.27;66.77
62697;BME280;48761;42.680;23.312;2022-08-18T03:18:26;94729.84;;;20.25;66.58
62697;BME280;48761;42.680;23.312;2022-08-18T03:20:52;94732.41;;;20.27;67.09
62697;BME280;48761;42.680;23.312;2022-08-18T03:23:18;94737.09;;;20.33;67.08
62697;BME280;48761;42.680;23.312;2022-08-18T03:25:48;94741.81;;;20.23;67.22
62697;BME280;48761;42.680;23.312;2022-08-18T03:28:15;94747.06;;;20.16;67.57
62697;BME280;48761;42.680;23.312;2022-08-18T03:30:42;94745.03;;;20.18;67.57
62697;BME280;48761;42.680;23.312;2022-08-18T03:33:08;94747.59;;;20.11;67.62
62697;BME280;48761;42.680;23.312;2022-08-18T03:35:35;94744.34;;;20.08;67.84
62697;BME280;48761;42.680;23.312;2022-08-18T03:38:03;94744.00;;;20.11;67.72
62697;BME280;48761;42.680;23.312;2022-08-18T03:40:29;94734.59;;;20.15;67.68
62697;BME280;48761;42.680;23.312;2022-08-18T03:42:55;94746.75;;;20.19;67.49
62697;BME280;48761;42.680;23.312;2022-08-18T03:45:21;94745.38;;;20.15;67.73
62697;BME280;48761;42.680;23.312;2022-08-18T03:47:47;94750.44;;;20.18;67.49
62697;BME280;48761;42.680;23.312;2022-08-18T03:50:13;94745.03;;;20.01;68.28
62697;BME280;48761;42.680;23.312;2022-08-18T03:52:38;94748.91;;;19.90;68.47
62697;BME280;48761;42.680;23.312;2022-08-18T03:55:05;94753.63;;;19.63;69.34
62697;BME280;48761;42.680;23.312;2022-08-18T03:57:30;94753.06;;;19.34;70.21
62697;BME280;48761;42.680;23.312;2022-08-18T03:59:56;94761.13;;;19.26;70.38
62697;BME280;48761;42.680;23.312;2022-08-18T04:02:22;94756.31;;;19.11;70.60
62697;BME280;48761;42.680;23.312;2022-08-18T04:04:48;94761.03;;;19.09;70.91
62697;BME280;48761;42.680;23.312;2022-08-18T04:07:14;94758.69;;;19.14;70.96
62697;BME280;48761;42.680;23.312;2022-08-18T04:09:40;94760.78;;;19.21;70.74
62697;BME280;48761;42.680;23.312;2022-08-18T04:12:09;94767.75;;;19.57;69.96
62697;BME280;48761;42.680;23.312;2022-08-18T04:14:35;94763.59;;;20.13;67.80
62697;BME280;48761;42.680;23.312;2022-08-18T04:17:01;94768.41;;;21.16;64.42
62697;BME280;48761;42.680;23.312;2022-08-18T04:19:27;94774.78;;;22.11;61.44
62697;BME280;48761;42.680;23.312;2022-08-18T04:21:55;94769.84;;;23.14;58.21
62697;BME280;48761;42.680;23.312;2022-08-18T04:24:22;94777.59;;;23.92;55.84
62697;BME280;48761;42.680;23.312;2022-08-18T04:26:48;94777.91;;;24.77;53.14
62697;BME280;48761;42.680;23.312;2022-08-18T04:29:15;94777.38;;;25.80;50.83
62697;BME280;48761;42.680;23.312;2022-08-18T04:31:42;94778.50;;;26.26;48.63
62697;BME280;48761;42.680;23.312;2022-08-18T04:34:08;94785.56;;;27.09;46.43
62697;BME280;48761;42.680;23.312;2022-08-18T04:36:35;94788.25;;;27.36;46.11
62697;BME280;48761;42.680;23.312;2022-08-18T04:39:03;94789.56;;;27.80;44.54
62697;BME280;48761;42.680;23.312;2022-08-18T04:41:30;94790.56;;;28.50;43.83
62697;BME280;48761;42.680;23.312;2022-08-18T04:43:57;94786.56;;;28.79;42.46
62697;BME280;48761;42.680;23.312;2022-08-18T04:46:25;94777.00;;;29.33;41.81
62697;BME280;48761;42.680;23.312;2022-08-18T04:48:52;94784.28;;;29.88;40.55
62697;BME280;48761;42.680;23.312;2022-08-18T04:51:19;94782.25;;;30.15;39.40
62697;BME280;48761;42.680;23.312;2022-08-18T04:53:46;94785.03;;;30.82;38.44
62697;BME280;48761;42.680;23.312;2022-08-18T04:56:26;94794.31;;;31.29;37.73
62697;BME280;48761;42.680;23.312;2022-08-18T04:58:57;94792.28;;;31.90;36.35
62697;BME280;48761;42.680;23.312;2022-08-18T05:01:25;94797.66;;;31.84;36.49
62697;BME280;48761;42.680;23.312;2022-08-18T05:03:53;94793.56;;;32.28;35.35
62697;BME280;48761;42.680;23.312;2022-08-18T05:06:21;94789.41;;;32.60;34.44
62697;BME280;48761;42.680;23.312;2022-08-18T05:08:51;94797.28;;;32.86;34.11
62697;BME280;48761;42.680;23.312;2022-08-18T05:11:17;94793.59;;;32.97;34.10
62697;BME280;48761;42.680;23.312;2022-08-18T05:13:55;94797.97;;;33.16;33.65
62697;BME280;48761;42.680;23.312;2022-08-18T05:16:21;94794.78;;;34.37;31.75
62697;BME280;48761;42.680;23.312;2022-08-18T05:18:47;94798.81;;;34.84;30.97
62697;BME280;48761;42.680;23.312;2022-08-18T05:21:14;94803.09;;;35.03;30.40
62697;BME280;48761;42.680;23.312;2022-08-18T05:23:45;94809.50;;;35.57;29.51
62697;BME280;48761;42.680;23.312;2022-08-18T05:26:12;94809.34;;;35.31;29.64
62697;BME280;48761;42.680;23.312;2022-08-18T05:28:38;94805.94;;;35.62;29.61
62697;BME280;48761;42.680;23.312;2022-08-18T05:31:13;94810.09;;;35.64;28.91
62697;BME280;48761;42.680;23.312;2022-08-18T05:33:40;94808.50;;;35.84;28.67
62697;BME280;48761;42.680;23.312;2022-08-18T05:36:21;94802.91;;;35.63;29.09
62697;BME280;48761;42.680;23.312;2022-08-18T05:41:26;94802.94;;;35.74;28.81
62697;BME280;48761;42.680;23.312;2022-08-18T05:43:54;94810.41;;;37.11;27.08
62697;BME280;48761;42.680;23.312;2022-08-18T05:46:29;94813.72;;;36.61;27.68
62697;BME280;48761;42.680;23.312;2022-08-18T05:49:09;94812.00;;;37.54;26.64
62697;BME280;48761;42.680;23.312;2022-08-18T05:51:44;94808.59;;;37.73;26.32
62697;BME280;48761;42.680;23.312;2022-08-18T05:54:11;94811.91;;;37.75;26.54
62697;BME280;48761;42.680;23.312;2022-08-18T05:56:40;94809.22;;;37.59;26.68
62697;BME280;48761;42.680;23.312;2022-08-18T05:59:07;94808.34;;;38.36;25.75
62697;BME280;48761;42.680;23.312;2022-08-18T06:01:42;94809.47;;;38.75;25.28
62697;BME280;48761;42.680;23.312;2022-08-18T06:04:37;94813.59;;;38.77;24.76
62697;BME280;48761;42.680;23.312;2022-08-18T06:07:06;94806.91;;;38.84;25.02
62697;BME280;48761;42.680;23.312;2022-08-18T06:09:42;94806.94;;;38.73;24.76
62697;BME280;48761;42.680;23.312;2022-08-18T06:12:25;94809.13;;;38.82;24.71
62697;BME280;48761;42.680;23.312;2022-08-18T06:15:01;94810.28;;;37.74;25.71
62697;BME280;48761;42.680;23.312;2022-08-18T06:17:37;94807.25;;;37.65;26.35
62697;BME280;48761;42.680;23.312;2022-08-18T06:20:23;94806.63;;;38.45;25.64
62697;BME280;48761;42.680;23.312;2022-08-18T06:26:01;94814.69;;;40.40;23.51
62697;BME280;48761;42.680;23.312;2022-08-18T06:31:34;94814.34;;;40.61;22.68
62697;BME280;48761;42.680;23.312;2022-08-18T06:34:43;94810.50;;;40.95;22.69
62697;BME280;48761;42.680;23.312;2022-08-18T06:37:56;94808.66;;;41.05;22.52
62697;BME280;48761;42.680;23.312;2022-08-18T06:40:46;94817.13;;;41.47;21.79
62697;BME280;48761;42.680;23.312;2022-08-18T06:43:33;94817.53;;;42.25;21.55
62697;BME280;48761;42.680;23.312;2022-08-18T06:46:23;94810.56;;;42.13;21.30
62697;BME280;48761;42.680;23.312;2022-08-18T06:49:22;94802.31;;;42.83;21.12
62697;BME280;48761;42.680;23.312;2022-08-18T06:55:08;94794.38;;;42.99;20.70
62697;BME280;48761;42.680;23.312;2022-08-18T06:58:18;94800.75;;;43.45;20.28
62697;BME280;48761;42.680;23.312;2022-08-18T07:01:06;94793.78;;;43.11;20.47
62697;BME280;48761;42.680;23.312;2022-08-18T07:03:54;94796.22;;;43.67;19.79
62697;BME280;48761;42.680;23.312;2022-08-18T07:06:40;94788.88;;;43.81;20.21
62697;BME280;48761;42.680;23.312;2022-08-18T07:09:33;94780.53;;;44.07;19.73
62697;BME280;48761;42.680;23.312;2022-08-18T07:12:22;94781.97;;;44.72;19.17
62697;BME280;48761;42.680;23.312;2022-08-18T07:15:11;94781.09;;;44.89;18.97
62697;BME280;48761;42.680;23.312;2022-08-18T07:18:07;94783.81;;;45.34;18.87
62697;BME280;48761;42.680;23.312;2022-08-18T07:21:01;94775.66;;;44.40;19.64
62697;BME280;48761;42.680;23.312;2022-08-18T07:24:00;94775.19;;;44.82;19.42
62697;BME280;48761;42.680;23.312;2022-08-18T07:26:59;94779.91;;;45.17;19.05
62697;BME280;48761;42.680;23.312;2022-08-18T07:30:07;94774.31;;;45.17;18.73
62697;BME280;48761;42.680;23.312;2022-08-18T07:33:08;94775.09;;;45.75;18.12
62697;BME280;48761;42.680;23.312;2022-08-18T07:36:05;94769.41;;;44.43;19.07
62697;BME280;48761;42.680;23.312;2022-08-18T07:39:00;94776.31;;;45.08;18.64
62697;BME280;48761;42.680;23.312;2022-08-18T07:42:07;94776.69;;;44.97;19.06
62697;BME280;48761;42.680;23.312;2022-08-18T07:45:00;94773.91;;;45.45;18.87
62697;BME280;48761;42.680;23.312;2022-08-18T08:00:40;94779.91;;;45.17;18.40
62697;BME280;48761;42.680;23.312;2022-08-18T08:04:10;94771.03;;;44.17;19.05
62697;BME280;48761;42.680;23.312;2022-08-18T08:06:53;94775.66;;;44.93;18.73
62697;BME280;48761;42.680;23.312;2022-08-18T08:13:02;94769.41;;;44.78;19.16
62697;BME280;48761;42.680;23.312;2022-08-18T08:21:51;94769.13;;;45.37;18.12
62697;BME280;48761;42.680;23.312;2022-08-18T08:28:00;94765.75;;;45.62;18.23
62697;BME280;48761;42.680;23.312;2022-08-18T08:33:54;94763.13;;;45.96;17.72
62697;BME280;48761;42.680;23.312;2022-08-18T08:36:44;94765.31;;;44.85;18.52
62697;BME280;48761;42.680;23.312;2022-08-18T08:39:47;94760.47;;;45.12;18.57
62697;BME280;48761;42.680;23.312;2022-08-18T08:45:35;94753.53;;;45.18;17.77
62697;BME280;48761;42.680;23.312;2022-08-18T08:48:26;94749.00;;;44.51;17.41
62697;BME280;48761;42.680;23.312;2022-08-18T08:51:43;94747.34;;;44.50;17.63
62697;BME280;48761;42.680;23.312;2022-08-18T08:54:55;94749.31;;;44.41;17.65
62697;BME280;48761;42.680;23.312;2022-08-18T08:57:52;94746.84;;;44.48;17.25
62697;BME280;48761;42.680;23.312;2022-08-18T09:00:41;94751.84;;;43.75;18.02
62697;BME280;48761;42.680;23.312;2022-08-18T09:31:16;94718.44;;;41.20;20.03
62697;BME280;48761;42.680;23.312;2022-08-18T09:34:21;94710.28;;;40.76;21.03
62697;BME280;48761;42.680;23.312;2022-08-18T09:37:22;94706.94;;;40.60;20.93
62697;BME280;48761;42.680;23.312;2022-08-18T09:40:17;94698.38;;;39.59;21.72
62697;BME280;48761;42.680;23.312;2022-08-18T09:45:58;94701.19;;;40.17;21.35
62697;BME280;48761;42.680;23.312;2022-08-18T09:48:44;94705.31;;;39.81;21.34
62697;BME280;48761;42.680;23.312;2022-08-18T09:51:35;94707.44;;;38.91;22.56
62697;BME280;48761;42.680;23.312;2022-08-18T09:54:32;94692.69;;;37.80;23.45
62697;BME280;48761;42.680;23.312;2022-08-18T10:05:39;94685.47;;;37.23;24.61
62697;BME280;48761;42.680;23.312;2022-08-18T10:21:24;94674.72;;;35.75;25.47
62697;BME280;48761;42.680;23.312;2022-08-18T10:29:49;94663.41;;;35.76;25.05
62697;BME280;48761;42.680;23.312;2022-08-18T10:32:41;94645.34;;;35.42;25.40
62697;BME280;48761;42.680;23.312;2022-08-18T10:38:26;94648.72;;;35.55;25.71
62697;BME280;48761;42.680;23.312;2022-08-18T10:41:27;94658.16;;;35.70;26.01
62697;BME280;48761;42.680;23.312;2022-08-18T10:44:15;94650.44;;;35.82;25.28
62697;BME280;48761;42.680;23.312;2022-08-18T10:47:03;94644.88;;;35.72;25.50
62697;BME280;48761;42.680;23.312;2022-08-18T10:49:50;94642.09;;;35.56;25.62
62697;BME280;48761;42.680;23.312;2022-08-18T10:52:57;94643.22;;;35.65;24.84
62697;BME280;48761;42.680;23.312;2022-08-18T11:04:51;94629.81;;;34.72;24.99
62697;BME280;48761;42.680;23.312;2022-08-18T11:07:38;94623.47;;;34.71;24.98
62697;BME280;48761;42.680;23.312;2022-08-18T11:10:42;94620.41;;;35.11;25.44
62697;BME280;48761;42.680;23.312;2022-08-18T11:13:47;94623.19;;;35.16;25.11
62697;BME280;48761;42.680;23.312;2022-08-18T11:19:41;94618.31;;;35.50;24.79
62697;BME280;48761;42.680;23.312;2022-08-18T11:22:33;94617.19;;;35.40;24.41
62697;BME280;48761;42.680;23.312;2022-08-18T11:25:38;94622.22;;;35.59;24.44
62697;BME280;48761;42.680;23.312;2022-08-18T11:28:28;94616.28;;;35.29;24.97
62697;BME280;48761;42.680;23.312;2022-08-18T11:31:14;94623.22;;;35.27;25.07
62697;BME280;48761;42.680;23.312;2022-08-18T11:34:00;94622.63;;;35.19;25.20
62697;BME280;48761;42.680;23.312;2022-08-18T11:36:58;94616.91;;;35.47;24.58
62697;BME280;48761;42.680;23.312;2022-08-18T11:39:47;94614.75;;;35.54;24.78
62697;BME280;48761;42.680;23.312;2022-08-18T11:42:38;94619.19;;;35.66;24.25
62697;BME280;48761;42.680;23.312;2022-08-18T11:45:29;94613.38;;;35.73;23.44
62697;BME280;48761;42.680;23.312;2022-08-18T11:54:18;94607.75;;;35.31;24.47
62697;BME280;48761;42.680;23.312;2022-08-18T12:00:55;94589.22;;;35.16;25.26
62697;BME280;48761;42.680;23.312;2022-08-18T12:03:44;94592.28;;;35.35;25.20
62697;BME280;48761;42.680;23.312;2022-08-18T12:06:32;94588.44;;;35.31;25.33
62697;BME280;48761;42.680;23.312;2022-08-18T12:09:29;94587.28;;;35.11;24.79
62697;BME280;48761;42.680;23.312;2022-08-18T12:18:00;94574.44;;;34.78;25.68
62697;BME280;48761;42.680;23.312;2022-08-18T12:20:48;94573.38;;;34.85;25.43
62697;BME280;48761;42.680;23.312;2022-08-18T12:23:36;94584.81;;;34.61;25.77
62697;BME280;48761;42.680;23.312;2022-08-18T12:26:24;94579.47;;;34.43;25.51
62697;BME280;48761;42.680;23.312;2022-08-18T12:29:10;94571.59;;;34.63;25.67
62697;BME280;48761;42.680;23.312;2022-08-18T12:31:56;94579.91;;;34.68;24.74
62697;BME280;48761;42.680;23.312;2022-08-18T12:34:42;94569.03;;;34.46;24.77
62697;BME280;48761;42.680;23.312;2022-08-18T12:37:28;94564.75;;;34.27;25.41
62697;BME280;48761;42.680;23.312;2022-08-18T12:40:15;94574.59;;;34.13;25.79
62697;BME280;48761;42.680;23.312;2022-08-18T12:43:01;94568.00;;;34.19;26.28
62697;BME280;48761;42.680;23.312;2022-08-18T12:45:47;94577.19;;;33.92;26.37
62697;BME280;48761;42.680;23.312;2022-08-18T12:48:36;94572.81;;;34.01;26.44
62697;BME280;48761;42.680;23.312;2022-08-18T12:51:22;94580.53;;;33.99;26.48
62697;BME280;48761;42.680;23.312;2022-08-18T12:54:08;94573.69;;;34.07;26.09
62697;BME280;48761;42.680;23.312;2022-08-18T12:56:55;94569.63;;;34.15;26.21
62697;BME280;48761;42.680;23.312;2022-08-18T12:59:41;94567.47;;;34.22;26.01
62697;BME280;48761;42.680;23.312;2022-08-18T13:02:27;94571.72;;;34.35;26.24
62697;BME280;48761;42.680;23.312;2022-08-18T13:05:14;94564.91;;;34.48;26.11
62697;BME280;48761;42.680;23.312;2022-08-18T13:08:02;94561.66;;;34.67;25.67
62697;BME280;48761;42.680;23.312;2022-08-18T13:10:48;94556.34;;;34.50;25.91
62697;BME280;48761;42.680;23.312;2022-08-18T13:13:34;94552.78;;;34.54;25.98
62697;BME280;48761;42.680;23.312;2022-08-18T13:16:22;94551.75;;;34.71;25.60
62697;BME280;48761;42.680;23.312;2022-08-18T13:19:08;94550.53;;;34.46;26.07
62697;BME280;48761;42.680;23.312;2022-08-18T13:21:55;94547.63;;;34.69;25.97
62697;BME280;48761;42.680;23.312;2022-08-18T13:24:41;94540.38;;;34.57;25.91
62697;BME280;48761;42.680;23.312;2022-08-18T13:27:27;94540.13;;;34.53;26.39
62697;BME280;48761;42.680;23.312;2022-08-18T13:30:15;94538.09;;;34.43;26.19
62697;BME280;48761;42.680;23.312;2022-08-18T13:33:01;94535.97;;;34.56;26.11
62697;BME280;48761;42.680;23.312;2022-08-18T13:35:48;94543.91;;;34.42;26.09
62697;BME280;48761;42.680;23.312;2022-08-18T13:38:35;94541.19;;;34.52;25.84
62697;BME280;48761;42.680;23.312;2022-08-18T13:41:21;94540.09;;;34.59;26.03
62697;BME280;48761;42.680;23.312;2022-08-18T13:44:09;94534.03;;;34.56;26.37
62697;BME280;48761;42.680;23.312;2022-08-18T13:46:35;94535.69;;;34.52;25.94
62697;BME280;48761;42.680;23.312;2022-08-18T13:49:01;94530.19;;;34.58;25.29
62697;BME280;48761;42.680;23.312;2022-08-18T13:51:27;94535.13;;;34.50;24.96
62697;BME280;48761;42.680;23.312;2022-08-18T13:53:53;94528.53;;;34.62;25.29
62697;BME280;48761;42.680;23.312;2022-08-18T13:56:19;94530.22;;;34.63;25.05
62697;BME280;48761;42.680;23.312;2022-08-18T13:58:45;94524.75;;;34.73;25.50
62697;BME280;48761;42.680;23.312;2022-08-18T14:01:11;94528.03;;;34.70;25.12
62697;BME280;48761;42.680;23.312;2022-08-18T14:03:38;94524.09;;;34.50;25.83
62697;BME280;48761;42.680;23.312;2022-08-18T14:06:04;94521.38;;;34.55;25.74
62697;BME280;48761;42.680;23.312;2022-08-18T14:08:30;94518.34;;;34.62;25.78
62697;BME280;48761;42.680;23.312;2022-08-18T14:11:01;94521.88;;;34.52;25.33
62697;BME280;48761;42.680;23.312;2022-08-18T14:13:28;94521.09;;;34.62;25.48
62697;BME280;48761;42.680;23.312;2022-08-18T14:15:56;94514.06;;;34.33;25.60
62697;BME280;48761;42.680;23.312;2022-08-18T14:18:23;94519.06;;;34.42;25.61
62697;BME280;48761;42.680;23.312;2022-08-18T14:20:50;94519.78;;;34.27;26.07
62697;BME280;48761;42.680;23.312;2022-08-18T14:23:16;94519.06;;;34.37;26.08
62697;BME280;48761;42.680;23.312;2022-08-18T14:25:42;94508.84;;;34.37;25.95
62697;BME280;48761;42.680;23.312;2022-08-18T14:28:08;94512.03;;;34.18;26.40
62697;BME280;48761;42.680;23.312;2022-08-18T14:30:35;94511.31;;;34.33;26.23
62697;BME280;48761;42.680;23.312;2022-08-18T14:33:05;94502.50;;;34.37;25.88
62697;BME280;48761;42.680;23.312;2022-08-18T14:35:31;94509.72;;;34.43;26.20
62697;BME280;48761;42.680;23.312;2022-08-18T14:37:57;94511.91;;;34.46;26.22
62697;BME280;48761;42.680;23.312;2022-08-18T14:40:23;94505.31;;;34.47;26.04
62697;BME280;48761;42.680;23.312;2022-08-18T14:42:48;94505.50;;;34.30;25.80
62697;BME280;48761;42.680;23.312;2022-08-18T14:45:14;94504.03;;;34.17;26.22
62697;BME280;48761;42.680;23.312;2022-08-18T14:47:40;94495.44;;;34.08;26.43
62697;BME280;48761;42.680;23.312;2022-08-18T14:50:07;94504.56;;;34.14;26.63
62697;BME280;48761;42.680;23.312;2022-08-18T14:52:33;94508.22;;;34.25;26.21
62697;BME280;48761;42.680;23.312;2022-08-18T14:54:59;94511.00;;;34.30;26.22
62697;BME280;48761;42.680;23.312;2022-08-18T14:57:25;94511.63;;;34.37;26.28
62697;BME280;48761;42.680;23.312;2022-08-18T14:59:51;94515.19;;;33.94;26.49
62697;BME280;48761;42.680;23.312;2022-08-18T15:02:17;94510.59;;;34.10;26.37
62697;BME280;48761;42.680;23.312;2022-08-18T15:04:43;94510.59;;;34.10;26.38
62697;BME280;48761;42.680;23.312;2022-08-18T15:07:09;94504.88;;;34.17;26.70
62697;BME280;48761;42.680;23.312;2022-08-18T15:09:35;94515.47;;;33.98;26.90
62697;BME280;48761;42.680;23.312;2022-08-18T15:12:01;94518.25;;;33.98;26.56
62697;BME280;48761;42.680;23.312;2022-08-18T15:14:29;94514.56;;;33.82;27.10
62697;BME280;48761;42.680;23.312;2022-08-18T15:16:57;94523.97;;;33.91;27.05
62697;BME280;48761;42.680;23.312;2022-08-18T15:19:24;94527.56;;;33.92;27.17
62697;BME280;48761;42.680;23.312;2022-08-18T15:21:50;94518.19;;;33.87;27.43
62697;BME280;48761;42.680;23.312;2022-08-18T15:24:16;94515.47;;;33.93;27.05
62697;BME280;48761;42.680;23.312;2022-08-18T15:26:41;94524.31;;;33.95;27.30
62697;BME280;48761;42.680;23.312;2022-08-18T15:29:07;94516.00;;;33.89;27.32
62697;BME280;48761;42.680;23.312;2022-08-18T15:31:34;94518.41;;;33.81;27.42
62697;BME280;48761;42.680;23.312;2022-08-18T15:34:00;94527.94;;;33.73;27.18
62697;BME280;48761;42.680;23.312;2022-08-18T15:36:27;94528.66;;;33.91;27.07
62697;BME280;48761;42.680;23.312;2022-08-18T15:38:52;94525.09;;;33.95;27.01
62697;BME280;48761;42.680;23.312;2022-08-18T15:43:57;94524.09;;;33.74;27.32
62697;BME280;48761;42.680;23.312;2022-08-18T15:46:23;94522.44;;;33.73;27.69
62697;BME280;48761;42.680;23.312;2022-08-18T15:48:49;94518.50;;;33.63;27.79
62697;BME280;48761;42.680;23.312;2022-08-18T15:51:15;94522.38;;;33.62;27.96
62697;BME280;48761;42.680;23.312;2022-08-18T15:53:40;94518.78;;;33.62;28.17